1VA5 weather

CLOSED Hoffman's Farm Airport
Severn, Virginia, United States

Public forecast

Using degrees Fahrenheit for public forecast. Weather courtesy of forecast.io.

METAR (pilot weather report)

Closest report is Newport News Williamsburg International Airport, 9.6 nm (17.8 km) SSW. Retrieved 2019/07/23 14:54 UTC (9 minutes ago):

KPHF 231454Z 36006KT 10SM OVC020 23/20 A2990 RMK AO2 SLP125 60000 T02330200 51004

TAF (pilot weather forecast)

Closest forecast is Newport News Williamsburg International Airport, 9.6 nm (17.8 km) SSW. Retrieved 2019/07/23 12:22 UTC (3 hours ago):

TAF KPHF 231120Z 2312/2412 24011KT 6SM -SHRA VCTS OVC070CB FM231500 30007KT 6SM -SHRA BKN015 FM231700 35006KT 4SM SHRA OVC012 TEMPO 2318/2321 2SM TSRA OVC010CB FM232200 32005KT 5SM -SHRA BKN008 OVC015 FM240600 35005KT P6SM OVC030